sensor_id;sensor_type;location;lat;lon;timestamp;P1;durP1;ratioP1;P2;durP2;ratioP2
49590;SDS011;35496;-21.974;-46.800;2022-10-17T06:01:40;8.60;;;5.07;;
49590;SDS011;35496;-21.974;-46.800;2022-10-17T06:04:07;7.63;;;4.25;;
49590;SDS011;35496;-21.974;-46.800;2022-10-17T06:06:35;13.35;;;5.55;;
49590;SDS011;35496;-21.974;-46.800;2022-10-17T06:09:01;8.95;;;5.57;;
49590;SDS011;35496;-21.974;-46.800;2022-10-17T06:11:27;9.32;;;4.43;;
49590;SDS011;35496;-21.974;-46.800;2022-10-17T06:13:53;7.75;;;4.28;;
49590;SDS011;35496;-21.974;-46.800;2022-10-17T06:16:19;11.43;;;6.80;;
49590;SDS011;35496;-21.974;-46.800;2022-10-17T06:18:46;7.53;;;6.25;;
49590;SDS011;35496;-21.974;-46.800;2022-10-17T06:21:13;9.20;;;5.93;;
49590;SDS011;35496;-21.974;-46.800;2022-10-17T06:23:40;11.23;;;5.70;;
49590;SDS011;35496;-21.974;-46.800;2022-10-17T06:26:06;6.95;;;4.93;;
49590;SDS011;35496;-21.974;-46.800;2022-10-17T06:28:32;8.25;;;5.63;;
49590;SDS011;35496;-21.974;-46.800;2022-10-17T06:30:58;12.18;;;5.03;;
49590;SDS011;35496;-21.974;-46.800;2022-10-17T06:33:24;9.60;;;3.70;;
49590;SDS011;35496;-21.974;-46.800;2022-10-17T06:35:51;4.60;;;3.65;;
49590;SDS011;35496;-21.974;-46.800;2022-10-17T06:38:17;8.05;;;5.57;;
49590;SDS011;35496;-21.974;-46.800;2022-10-17T06:40:43;15.15;;;6.70;;
49590;SDS011;35496;-21.974;-46.800;2022-10-17T06:43:09;10.02;;;4.90;;
49590;SDS011;35496;-21.974;-46.800;2022-10-17T06:45:37;6.50;;;5.45;;
49590;SDS011;35496;-21.974;-46.800;2022-10-17T06:48:04;6.60;;;4.95;;
49590;SDS011;35496;-21.974;-46.800;2022-10-17T06:50:31;5.57;;;3.92;;
49590;SDS011;35496;-21.974;-46.800;2022-10-17T06:52:57;8.40;;;5.25;;
49590;SDS011;35496;-21.974;-46.800;2022-10-17T06:55:23;9.35;;;4.82;;
49590;SDS011;35496;-21.974;-46.800;2022-10-17T06:57:49;13.63;;;4.75;;
49590;SDS011;35496;-21.974;-46.800;2022-10-17T07:00:16;7.95;;;4.53;;
49590;SDS011;35496;-21.974;-46.800;2022-10-17T07:02:42;6.22;;;3.17;;
49590;SDS011;35496;-21.974;-46.800;2022-10-17T07:05:08;5.55;;;3.47;;
49590;SDS011;35496;-21.974;-46.800;2022-10-17T07:07:35;9.98;;;5.38;;
49590;SDS011;35496;-21.974;-46.800;2022-10-17T07:10:01;5.03;;;4.50;;
49590;SDS011;35496;-21.974;-46.800;2022-10-17T07:12:28;12.75;;;5.45;;
49590;SDS011;35496;-21.974;-46.800;2022-10-17T07:14:54;5.43;;;4.45;;
49590;SDS011;35496;-21.974;-46.800;2022-10-17T07:17:20;5.18;;;3.63;;
49590;SDS011;35496;-21.974;-46.800;2022-10-17T07:19:46;7.10;;;3.60;;
49590;SDS011;35496;-21.974;-46.800;2022-10-17T07:22:13;3.90;;;3.08;;
49590;SDS011;35496;-21.974;-46.800;2022-10-17T07:24:39;4.55;;;3.70;;
49590;SDS011;35496;-21.974;-46.800;2022-10-17T07:27:05;5.95;;;4.10;;
49590;SDS011;35496;-21.974;-46.800;2022-10-17T07:29:31;9.38;;;4.50;;
49590;SDS011;35496;-21.974;-46.800;2022-10-17T07:31:57;3.25;;;2.65;;
49590;SDS011;35496;-21.974;-46.800;2022-10-17T07:34:23;4.18;;;3.22;;
49590;SDS011;35496;-21.974;-46.800;2022-10-17T07:36:55;3.65;;;3.15;;
49590;SDS011;35496;-21.974;-46.800;2022-10-17T07:39:21;6.20;;;3.60;;
49590;SDS011;35496;-21.974;-46.800;2022-10-17T07:41:50;5.63;;;3.45;;
49590;SDS011;35496;-21.974;-46.800;2022-10-17T07:44:16;5.43;;;3.22;;
49590;SDS011;35496;-21.974;-46.800;2022-10-17T07:46:42;7.20;;;3.83;;
49590;SDS011;35496;-21.974;-46.800;2022-10-17T07:49:08;6.22;;;4.15;;
49590;SDS011;35496;-21.974;-46.800;2022-10-17T07:51:34;4.45;;;3.47;;
49590;SDS011;35496;-21.974;-46.800;2022-10-17T07:54:00;6.78;;;3.97;;
49590;SDS011;35496;-21.974;-46.800;2022-10-17T07:56:27;13.15;;;5.00;;
49590;SDS011;35496;-21.974;-46.800;2022-10-17T07:58:54;5.68;;;3.33;;
49590;SDS011;35496;-21.974;-46.800;2022-10-17T08:01:20;6.88;;;3.40;;
49590;SDS011;35496;-21.974;-46.800;2022-10-17T08:03:46;3.97;;;2.75;;
49590;SDS011;35496;-21.974;-46.800;2022-10-17T08:06:15;6.88;;;3.92;;
49590;SDS011;35496;-21.974;-46.800;2022-10-17T08:08:41;5.90;;;3.85;;
49590;SDS011;35496;-21.974;-46.800;2022-10-17T08:11:09;8.00;;;5.35;;
49590;SDS011;35496;-21.974;-46.800;2022-10-17T08:13:35;12.13;;;5.20;;
49590;SDS011;35496;-21.974;-46.800;2022-10-17T08:16:02;10.85;;;5.90;;
49590;SDS011;35496;-21.974;-46.800;2022-10-17T08:18:29;8.02;;;5.43;;
49590;SDS011;35496;-21.974;-46.800;2022-10-17T08:20:58;12.32;;;5.95;;
49590;SDS011;35496;-21.974;-46.800;2022-10-17T08:23:24;9.05;;;5.82;;
49590;SDS011;35496;-21.974;-46.800;2022-10-17T08:25:50;12.25;;;7.82;;
49590;SDS011;35496;-21.974;-46.800;2022-10-17T08:28:16;10.23;;;5.20;;
49590;SDS011;35496;-21.974;-46.800;2022-10-17T08:30:42;10.38;;;5.38;;
49590;SDS011;35496;-21.974;-46.800;2022-10-17T08:33:08;14.05;;;6.40;;
49590;SDS011;35496;-21.974;-46.800;2022-10-17T08:35:34;7.97;;;6.43;;
49590;SDS011;35496;-21.974;-46.800;2022-10-17T08:38:00;7.47;;;6.38;;
49590;SDS011;35496;-21.974;-46.800;2022-10-17T08:40:28;11.52;;;6.97;;
49590;SDS011;35496;-21.974;-46.800;2022-10-17T08:48:08;10.82;;;6.45;;
49590;SDS011;35496;-21.974;-46.800;2022-10-17T08:50:38;17.65;;;6.88;;
49590;SDS011;35496;-21.974;-46.800;2022-10-17T08:53:08;11.73;;;6.63;;
49590;SDS011;35496;-21.974;-46.800;2022-10-17T08:55:36;9.70;;;6.90;;
49590;SDS011;35496;-21.974;-46.800;2022-10-17T08:58:09;17.50;;;6.75;;
49590;SDS011;35496;-21.974;-46.800;2022-10-17T09:00:36;11.00;;;8.13;;
49590;SDS011;35496;-21.974;-46.800;2022-10-17T09:03:22;16.23;;;8.05;;
49590;SDS011;35496;-21.974;-46.800;2022-10-17T09:05:53;10.82;;;6.88;;
49590;SDS011;35496;-21.974;-46.800;2022-10-17T09:15:44;10.02;;;6.93;;
49590;SDS011;35496;-21.974;-46.800;2022-10-17T09:18:23;10.52;;;5.88;;
49590;SDS011;35496;-21.974;-46.800;2022-10-17T09:20:55;7.47;;;6.47;;
49590;SDS011;35496;-21.974;-46.800;2022-10-17T09:23:26;9.63;;;6.25;;
49590;SDS011;35496;-21.974;-46.800;2022-10-17T09:25:54;12.45;;;6.80;;
49590;SDS011;35496;-21.974;-46.800;2022-10-17T09:31:33;11.85;;;7.85;;
49590;SDS011;35496;-21.974;-46.800;2022-10-17T09:36:44;11.27;;;7.30;;
49590;SDS011;35496;-21.974;-46.800;2022-10-17T09:38:52;8.70;;;6.28;;
49590;SDS011;35496;-21.974;-46.800;2022-10-17T09:41:20;13.50;;;7.18;;
49590;SDS011;35496;-21.974;-46.800;2022-10-17T09:43:46;9.95;;;6.80;;
49590;SDS011;35496;-21.974;-46.800;2022-10-17T09:48:40;9.55;;;6.07;;
49590;SDS011;35496;-21.974;-46.800;2022-10-17T09:51:07;8.30;;;5.88;;
49590;SDS011;35496;-21.974;-46.800;2022-10-17T09:53:35;8.00;;;5.25;;
49590;SDS011;35496;-21.974;-46.800;2022-10-17T09:56:05;9.07;;;5.85;;
49590;SDS011;35496;-21.974;-46.800;2022-10-17T09:58:49;11.52;;;6.35;;
49590;SDS011;35496;-21.974;-46.800;2022-10-17T10:01:21;9.45;;;5.63;;
49590;SDS011;35496;-21.974;-46.800;2022-10-17T10:03:48;5.18;;;4.68;;
49590;SDS011;35496;-21.974;-46.800;2022-10-17T10:06:32;9.75;;;5.35;;
49590;SDS011;35496;-21.974;-46.800;2022-10-17T10:08:58;5.40;;;4.97;;
49590;SDS011;35496;-21.974;-46.800;2022-10-17T10:11:25;8.95;;;4.45;;
49590;SDS011;35496;-21.974;-46.800;2022-10-17T10:14:22;22.58;;;4.88;;
49590;SDS011;35496;-21.974;-46.800;2022-10-17T10:16:49;9.18;;;4.22;;
49590;SDS011;35496;-21.974;-46.800;2022-10-17T10:21:58;5.20;;;4.25;;
49590;SDS011;35496;-21.974;-46.800;2022-10-17T10:24:24;6.90;;;4.15;;
49590;SDS011;35496;-21.974;-46.800;2022-10-17T10:26:52;8.10;;;3.63;;
49590;SDS011;35496;-21.974;-46.800;2022-10-17T10:29:21;7.15;;;3.75;;
49590;SDS011;35496;-21.974;-46.800;2022-10-17T10:31:49;4.57;;;4.05;;
49590;SDS011;35496;-21.974;-46.800;2022-10-17T10:36:45;9.85;;;4.10;;
49590;SDS011;35496;-21.974;-46.800;2022-10-17T10:40:14;7.13;;;4.20;;
49590;SDS011;35496;-21.974;-46.800;2022-10-17T10:42:16;5.45;;;3.03;;
49590;SDS011;35496;-21.974;-46.800;2022-10-17T10:44:43;5.70;;;3.90;;
49590;SDS011;35496;-21.974;-46.800;2022-10-17T10:47:20;8.90;;;3.35;;
49590;SDS011;35496;-21.974;-46.800;2022-10-17T10:49:47;6.43;;;4.75;;
49590;SDS011;35496;-21.974;-46.800;2022-10-17T10:52:18;11.07;;;4.82;;
49590;SDS011;35496;-21.974;-46.800;2022-10-17T10:54:50;6.22;;;4.57;;
49590;SDS011;35496;-21.974;-46.800;2022-10-17T10:57:19;5.78;;;4.45;;
49590;SDS011;35496;-21.974;-46.800;2022-10-17T10:59:59;8.52;;;4.60;;
49590;SDS011;35496;-21.974;-46.800;2022-10-17T11:02:33;11.73;;;5.20;;
49590;SDS011;35496;-21.974;-46.800;2022-10-17T11:05:05;6.82;;;3.85;;
49590;SDS011;35496;-21.974;-46.800;2022-10-17T11:07:36;7.05;;;4.47;;
49590;SDS011;35496;-21.974;-46.800;2022-10-17T11:12:34;7.25;;;3.75;;
49590;SDS011;35496;-21.974;-46.800;2022-10-17T11:17:42;7.30;;;4.20;;
49590;SDS011;35496;-21.974;-46.800;2022-10-17T11:22:57;9.90;;;3.97;;
49590;SDS011;35496;-21.974;-46.800;2022-10-17T11:25:36;5.05;;;3.75;;
49590;SDS011;35496;-21.974;-46.800;2022-10-17T11:28:03;8.77;;;5.13;;
49590;SDS011;35496;-21.974;-46.800;2022-10-17T11:30:38;9.10;;;3.90;;
49590;SDS011;35496;-21.974;-46.800;2022-10-17T11:33:06;8.33;;;4.93;;
49590;SDS011;35496;-21.974;-46.800;2022-10-17T11:35:39;9.27;;;4.63;;
49590;SDS011;35496;-21.974;-46.800;2022-10-17T11:40:34;4.32;;;3.75;;
49590;SDS011;35496;-21.974;-46.800;2022-10-17T11:43:24;10.77;;;4.53;;
49590;SDS011;35496;-21.974;-46.800;2022-10-17T11:45:47;10.55;;;4.00;;
49590;SDS011;35496;-21.974;-46.800;2022-10-17T11:48:26;5.72;;;3.58;;
49590;SDS011;35496;-21.974;-46.800;2022-10-17T11:50:57;7.72;;;4.15;;
49590;SDS011;35496;-21.974;-46.800;2022-10-17T11:53:26;4.80;;;3.60;;
49590;SDS011;35496;-21.974;-46.800;2022-10-17T11:55:53;5.72;;;3.80;;
49590;SDS011;35496;-21.974;-46.800;2022-10-17T12:01:33;5.65;;;4.10;;
49590;SDS011;35496;-21.974;-46.800;2022-10-17T12:12:01;6.13;;;4.37;;
49590;SDS011;35496;-21.974;-46.800;2022-10-17T12:14:44;7.03;;;3.67;;
49590;SDS011;35496;-21.974;-46.800;2022-10-17T12:19:46;5.72;;;4.07;;
49590;SDS011;35496;-21.974;-46.800;2022-10-17T12:24:39;5.30;;;4.47;;
49590;SDS011;35496;-21.974;-46.800;2022-10-17T12:29:47;5.38;;;4.57;;
49590;SDS011;35496;-21.974;-46.800;2022-10-17T12:32:14;7.65;;;3.90;;
49590;SDS011;35496;-21.974;-46.800;2022-10-17T12:34:53;5.78;;;4.03;;
49590;SDS011;35496;-21.974;-46.800;2022-10-17T12:40:37;7.60;;;4.13;;
49590;SDS011;35496;-21.974;-46.800;2022-10-17T12:42:50;4.45;;;3.90;;
49590;SDS011;35496;-21.974;-46.800;2022-10-17T12:53:25;4.20;;;3.40;;
49590;SDS011;35496;-21.974;-46.800;2022-10-17T12:55:58;4.25;;;3.85;;
49590;SDS011;35496;-21.974;-46.800;2022-10-17T12:58:26;5.00;;;4.10;;
49590;SDS011;35496;-21.974;-46.800;2022-10-17T13:00:54;5.68;;;4.13;;
49590;SDS011;35496;-21.974;-46.800;2022-10-17T13:03:21;5.22;;;3.17;;
49590;SDS011;35496;-21.974;-46.800;2022-10-17T13:05:49;9.18;;;3.78;;
49590;SDS011;35496;-21.974;-46.800;2022-10-17T13:08:49;4.20;;;3.03;;
49590;SDS011;35496;-21.974;-46.800;2022-10-17T13:11:08;5.43;;;3.83;;
49590;SDS011;35496;-21.974;-46.800;2022-10-17T13:13:41;3.53;;;3.22;;
49590;SDS011;35496;-21.974;-46.800;2022-10-17T13:16:11;6.32;;;3.75;;
49590;SDS011;35496;-21.974;-46.800;2022-10-17T13:18:52;6.18;;;4.22;;
49590;SDS011;35496;-21.974;-46.800;2022-10-17T13:21:18;4.05;;;3.17;;
49590;SDS011;35496;-21.974;-46.800;2022-10-17T13:23:44;6.03;;;4.05;;
49590;SDS011;35496;-21.974;-46.800;2022-10-17T13:26:15;4.40;;;3.30;;
49590;SDS011;35496;-21.974;-46.800;2022-10-17T13:28:44;5.88;;;4.57;;
49590;SDS011;35496;-21.974;-46.800;2022-10-17T13:34:15;21.35;;;5.75;;
49590;SDS011;35496;-21.974;-46.800;2022-10-17T13:36:42;7.75;;;4.70;;
49590;SDS011;35496;-21.974;-46.800;2022-10-17T13:39:11;4.90;;;3.25;;
49590;SDS011;35496;-21.974;-46.800;2022-10-17T13:41:38;5.53;;;4.20;;
49590;SDS011;35496;-21.974;-46.800;2022-10-17T13:44:10;4.50;;;4.10;;
49590;SDS011;35496;-21.974;-46.800;2022-10-17T13:46:37;5.00;;;4.57;;
49590;SDS011;35496;-21.974;-46.800;2022-10-17T13:49:11;6.13;;;4.18;;
49590;SDS011;35496;-21.974;-46.800;2022-10-17T13:51:47;6.20;;;4.78;;
49590;SDS011;35496;-21.974;-46.800;2022-10-17T13:54:33;3.83;;;3.25;;
49590;SDS011;35496;-21.974;-46.800;2022-10-17T13:57:00;7.93;;;3.25;;
49590;SDS011;35496;-21.974;-46.800;2022-10-17T13:59:28;3.72;;;3.05;;
49590;SDS011;35496;-21.974;-46.800;2022-10-17T14:01:57;7.30;;;3.28;;
49590;SDS011;35496;-21.974;-46.800;2022-10-17T14:04:26;2.90;;;2.55;;
49590;SDS011;35496;-21.974;-46.800;2022-10-17T14:06:52;5.53;;;3.08;;
49590;SDS011;35496;-21.974;-46.800;2022-10-17T14:09:28;4.57;;;3.22;;
49590;SDS011;35496;-21.974;-46.800;2022-10-17T14:11:59;3.92;;;3.10;;
49590;SDS011;35496;-21.974;-46.800;2022-10-17T14:14:25;3.83;;;2.65;;
49590;SDS011;35496;-21.974;-46.800;2022-10-17T14:16:52;4.40;;;2.67;;
49590;SDS011;35496;-21.974;-46.800;2022-10-17T14:22:33;3.85;;;2.58;;
49590;SDS011;35496;-21.974;-46.800;2022-10-17T14:24:39;5.30;;;2.45;;
49590;SDS011;35496;-21.974;-46.800;2022-10-17T14:29:52;2.75;;;2.20;;
49590;SDS011;35496;-21.974;-46.800;2022-10-17T14:32:18;5.20;;;2.75;;
49590;SDS011;35496;-21.974;-46.800;2022-10-17T14:34:44;4.47;;;3.10;;
49590;SDS011;35496;-21.974;-46.800;2022-10-17T14:37:44;4.15;;;2.55;;
49590;SDS011;35496;-21.974;-46.800;2022-10-17T14:40:04;4.03;;;3.13;;
49590;SDS011;35496;-21.974;-46.800;2022-10-17T14:42:30;12.00;;;3.42;;
49590;SDS011;35496;-21.974;-46.800;2022-10-17T14:45:02;3.28;;;2.90;;
49590;SDS011;35496;-21.974;-46.800;2022-10-17T14:47:30;4.60;;;2.60;;
49590;SDS011;35496;-21.974;-46.800;2022-10-17T14:52:31;3.58;;;3.28;;
49590;SDS011;35496;-21.974;-46.800;2022-10-17T14:54:58;4.22;;;3.22;;
49590;SDS011;35496;-21.974;-46.800;2022-10-17T14:57:40;3.40;;;1.92;;
49590;SDS011;35496;-21.974;-46.800;2022-10-17T15:00:06;5.53;;;3.67;;
49590;SDS011;35496;-21.974;-46.800;2022-10-17T15:02:34;3.03;;;2.45;;
49590;SDS011;35496;-21.974;-46.800;2022-10-17T15:05:00;4.13;;;3.42;;
49590;SDS011;35496;-21.974;-46.800;2022-10-17T15:07:26;3.65;;;2.45;;
49590;SDS011;35496;-21.974;-46.800;2022-10-17T15:09:53;2.70;;;2.42;;
49590;SDS011;35496;-21.974;-46.800;2022-10-17T15:12:23;2.70;;;2.50;;
49590;SDS011;35496;-21.974;-46.800;2022-10-17T15:14:49;4.32;;;2.80;;
49590;SDS011;35496;-21.974;-46.800;2022-10-17T15:17:26;2.75;;;2.55;;
49590;SDS011;35496;-21.974;-46.800;2022-10-17T15:19:53;6.72;;;2.65;;
49590;SDS011;35496;-21.974;-46.800;2022-10-17T15:22:19;4.57;;;2.72;;
49590;SDS011;35496;-21.974;-46.800;2022-10-17T15:24:45;2.75;;;2.53;;
49590;SDS011;35496;-21.974;-46.800;2022-10-17T15:27:15;3.45;;;2.30;;
49590;SDS011;35496;-21.974;-46.800;2022-10-17T15:29:41;7.32;;;3.45;;
49590;SDS011;35496;-21.974;-46.800;2022-10-17T15:32:08;6.18;;;3.10;;
49590;SDS011;35496;-21.974;-46.800;2022-10-17T15:34:34;4.25;;;2.58;;
49590;SDS011;35496;-21.974;-46.800;2022-10-17T15:37:00;3.35;;;2.80;;
49590;SDS011;35496;-21.974;-46.800;2022-10-17T15:39:26;6.05;;;2.95;;
49590;SDS011;35496;-21.974;-46.800;2022-10-17T15:41:52;2.40;;;2.20;;
49590;SDS011;35496;-21.974;-46.800;2022-10-17T15:44:18;7.38;;;2.75;;
49590;SDS011;35496;-21.974;-46.800;2022-10-17T15:46:44;5.00;;;3.72;;
49590;SDS011;35496;-21.974;-46.800;2022-10-17T15:49:12;4.15;;;3.20;;
49590;SDS011;35496;-21.974;-46.800;2022-10-17T15:51:38;4.18;;;3.33;;
49590;SDS011;35496;-21.974;-46.800;2022-10-17T15:54:05;4.40;;;3.00;;
49590;SDS011;35496;-21.974;-46.800;2022-10-17T15:56:32;2.78;;;2.58;;
49590;SDS011;35496;-21.974;-46.800;2022-10-17T15:59:09;3.55;;;2.90;;
49590;SDS011;35496;-21.974;-46.800;2022-10-17T16:01:35;3.30;;;2.88;;
49590;SDS011;35496;-21.974;-46.800;2022-10-17T16:04:01;3.15;;;2.33;;
49590;SDS011;35496;-21.974;-46.800;2022-10-17T16:06:28;3.00;;;2.63;;
49590;SDS011;35496;-21.974;-46.800;2022-10-17T16:08:54;3.58;;;3.25;;
49590;SDS011;35496;-21.974;-46.800;2022-10-17T16:11:31;3.45;;;3.25;;
49590;SDS011;35496;-21.974;-46.800;2022-10-17T16:13:59;5.25;;;3.35;;
49590;SDS011;35496;-21.974;-46.800;2022-10-17T16:16:26;4.57;;;3.55;;
49590;SDS011;35496;-21.974;-46.800;2022-10-17T16:18:52;4.55;;;3.17;;
49590;SDS011;35496;-21.974;-46.800;2022-10-17T16:21:18;4.03;;;2.97;;
49590;SDS011;35496;-21.974;-46.800;2022-10-17T16:23:45;5.30;;;2.95;;
49590;SDS011;35496;-21.974;-46.800;2022-10-17T16:26:11;5.82;;;4.50;;
49590;SDS011;35496;-21.974;-46.800;2022-10-17T16:28:41;4.88;;;3.10;;
49590;SDS011;35496;-21.974;-46.800;2022-10-17T16:31:16;3.33;;;3.03;;
49590;SDS011;35496;-21.974;-46.800;2022-10-17T16:33:42;5.70;;;3.05;;
49590;SDS011;35496;-21.974;-46.800;2022-10-17T16:36:08;4.05;;;3.50;;
49590;SDS011;35496;-21.974;-46.800;2022-10-17T16:38:35;3.30;;;2.80;;
49590;SDS011;35496;-21.974;-46.800;2022-10-17T16:41:01;4.20;;;2.60;;
49590;SDS011;35496;-21.974;-46.800;2022-10-17T16:43:27;5.65;;;3.72;;
49590;SDS011;35496;-21.974;-46.800;2022-10-17T16:45:56;4.15;;;3.50;;
49590;SDS011;35496;-21.974;-46.800;2022-10-17T16:48:22;7.40;;;3.25;;
49590;SDS011;35496;-21.974;-46.800;2022-10-17T16:50:48;4.40;;;3.00;;
49590;SDS011;35496;-21.974;-46.800;2022-10-17T16:53:14;2.60;;;2.40;;
49590;SDS011;35496;-21.974;-46.800;2022-10-17T16:55:40;3.50;;;2.83;;
49590;SDS011;35496;-21.974;-46.800;2022-10-17T16:58:07;9.50;;;4.10;;
49590;SDS011;35496;-21.974;-46.800;2022-10-17T17:00:33;10.75;;;3.80;;
49590;SDS011;35496;-21.974;-46.800;2022-10-17T17:02:59;3.60;;;3.15;;
49590;SDS011;35496;-21.974;-46.800;2022-10-17T17:05:25;3.83;;;2.70;;
49590;SDS011;35496;-21.974;-46.800;2022-10-17T17:07:51;4.90;;;3.22;;
49590;SDS011;35496;-21.974;-46.800;2022-10-17T17:10:17;3.20;;;2.88;;
49590;SDS011;35496;-21.974;-46.800;2022-10-17T17:12:43;2.65;;;2.45;;
49590;SDS011;35496;-21.974;-46.800;2022-10-17T17:15:09;6.10;;;3.30;;
49590;SDS011;35496;-21.974;-46.800;2022-10-17T17:17:35;4.40;;;4.05;;
49590;SDS011;35496;-21.974;-46.800;2022-10-17T17:20:01;2.90;;;2.70;;
49590;SDS011;35496;-21.974;-46.800;2022-10-17T17:22:28;4.65;;;2.53;;
49590;SDS011;35496;-21.974;-46.800;2022-10-17T17:24:54;3.30;;;2.50;;
49590;SDS011;35496;-21.974;-46.800;2022-10-17T17:27:20;4.57;;;3.40;;
49590;SDS011;35496;-21.974;-46.800;2022-10-17T17:29:46;5.38;;;3.65;;
49590;SDS011;35496;-21.974;-46.800;2022-10-17T17:32:12;4.63;;;3.78;;
49590;SDS011;35496;-21.974;-46.800;2022-10-17T17:34:39;4.05;;;3.70;;
49590;SDS011;35496;-21.974;-46.800;2022-10-17T17:37:05;7.70;;;3.20;;
49590;SDS011;35496;-21.974;-46.800;2022-10-17T17:39:31;6.75;;;3.70;;
49590;SDS011;35496;-21.974;-46.800;2022-10-17T17:41:57;3.72;;;2.83;;
49590;SDS011;35496;-21.974;-46.800;2022-10-17T17:44:23;9.35;;;3.95;;
49590;SDS011;35496;-21.974;-46.800;2022-10-17T17:46:49;6.72;;;3.88;;
49590;SDS011;35496;-21.974;-46.800;2022-10-17T17:49:15;7.95;;;3.08;;
49590;SDS011;35496;-21.974;-46.800;2022-10-17T17:51:41;12.98;;;4.03;;
49590;SDS011;35496;-21.974;-46.800;2022-10-17T17:54:10;8.85;;;4.30;;
49590;SDS011;35496;-21.974;-46.800;2022-10-17T17:56:37;6.43;;;3.42;;
49590;SDS011;35496;-21.974;-46.800;2022-10-17T17:59:03;4.82;;;3.30;;
49590;SDS011;35496;-21.974;-46.800;2022-10-17T18:01:31;14.27;;;4.10;;
49590;SDS011;35496;-21.974;-46.800;2022-10-17T18:04:00;6.35;;;3.28;;
49590;SDS011;35496;-21.974;-46.800;2022-10-17T18:06:26;7.65;;;4.38;;
49590;SDS011;35496;-21.974;-46.800;2022-10-17T18:08:54;7.30;;;4.20;;
49590;SDS011;35496;-21.974;-46.800;2022-10-17T18:11:21;5.97;;;3.42;;
49590;SDS011;35496;-21.974;-46.800;2022-10-17T18:13:51;8.98;;;4.13;;
49590;SDS011;35496;-21.974;-46.800;2022-10-17T18:16:17;6.75;;;4.00;;
49590;SDS011;35496;-21.974;-46.800;2022-10-17T18:18:43;8.88;;;4.10;;
49590;SDS011;35496;-21.974;-46.800;2022-10-17T18:21:10;7.50;;;3.83;;
49590;SDS011;35496;-21.974;-46.800;2022-10-17T18:23:37;6.25;;;3.75;;
49590;SDS011;35496;-21.974;-46.800;2022-10-17T18:26:03;5.88;;;4.35;;
49590;SDS011;35496;-21.974;-46.800;2022-10-17T18:28:32;3.97;;;3.58;;
49590;SDS011;35496;-21.974;-46.800;2022-10-17T18:31:02;9.63;;;4.90;;
49590;SDS011;35496;-21.974;-46.800;2022-10-17T18:33:29;5.32;;;3.65;;
49590;SDS011;35496;-21.974;-46.800;2022-10-17T18:35:55;13.65;;;4.43;;
49590;SDS011;35496;-21.974;-46.800;2022-10-17T18:38:21;8.32;;;4.45;;
49590;SDS011;35496;-21.974;-46.800;2022-10-17T18:40:47;8.27;;;3.67;;
49590;SDS011;35496;-21.974;-46.800;2022-10-17T18:43:13;6.90;;;4.55;;
49590;SDS011;35496;-21.974;-46.800;2022-10-17T18:45:39;5.75;;;4.47;;
49590;SDS011;35496;-21.974;-46.800;2022-10-17T18:48:05;6.85;;;4.55;;
49590;SDS011;35496;-21.974;-46.800;2022-10-17T18:50:31;5.07;;;4.22;;
49590;SDS011;35496;-21.974;-46.800;2022-10-17T18:52:57;9.57;;;4.63;;
49590;SDS011;35496;-21.974;-46.800;2022-10-17T18:55:24;10.68;;;4.07;;
49590;SDS011;35496;-21.974;-46.800;2022-10-17T18:57:50;7.10;;;3.85;;
49590;SDS011;35496;-21.974;-46.800;2022-10-17T19:00:17;5.07;;;3.75;;
49590;SDS011;35496;-21.974;-46.800;2022-10-17T19:02:43;7.35;;;3.72;;
49590;SDS011;35496;-21.974;-46.800;2022-10-17T19:05:09;5.95;;;3.17;;
49590;SDS011;35496;-21.974;-46.800;2022-10-17T19:07:35;7.15;;;4.53;;
49590;SDS011;35496;-21.974;-46.800;2022-10-17T19:10:02;3.78;;;3.33;;
49590;SDS011;35496;-21.974;-46.800;2022-10-17T19:12:28;6.13;;;4.38;;
49590;SDS011;35496;-21.974;-46.800;2022-10-17T19:14:54;9.70;;;4.88;;
49590;SDS011;35496;-21.974;-46.800;2022-10-17T19:17:20;6.05;;;4.88;;
49590;SDS011;35496;-21.974;-46.800;2022-10-17T19:19:46;7.57;;;4.43;;
49590;SDS011;35496;-21.974;-46.800;2022-10-17T19:22:16;4.97;;;4.47;;
49590;SDS011;35496;-21.974;-46.800;2022-10-17T19:24:42;12.93;;;5.25;;
49590;SDS011;35496;-21.974;-46.800;2022-10-17T19:27:08;9.32;;;3.83;;
49590;SDS011;35496;-21.974;-46.800;2022-10-17T19:29:36;7.55;;;3.30;;
49590;SDS011;35496;-21.974;-46.800;2022-10-17T19:32:07;6.95;;;3.75;;
49590;SDS011;35496;-21.974;-46.800;2022-10-17T19:34:35;4.57;;;3.50;;
49590;SDS011;35496;-21.974;-46.800;2022-10-17T19:37:01;5.95;;;3.33;;
49590;SDS011;35496;-21.974;-46.800;2022-10-17T19:39:27;4.53;;;3.60;;
49590;SDS011;35496;-21.974;-46.800;2022-10-17T19:41:53;6.25;;;4.32;;
49590;SDS011;35496;-21.974;-46.800;2022-10-17T19:44:20;6.00;;;4.43;;
49590;SDS011;35496;-21.974;-46.800;2022-10-17T19:46:46;5.60;;;3.95;;
49590;SDS011;35496;-21.974;-46.800;2022-10-17T19:49:13;9.43;;;4.18;;
49590;SDS011;35496;-21.974;-46.800;2022-10-17T19:51:39;6.10;;;3.78;;
49590;SDS011;35496;-21.974;-46.800;2022-10-17T19:54:05;5.32;;;4.28;;
49590;SDS011;35496;-21.974;-46.800;2022-10-17T19:56:32;6.55;;;4.35;;
49590;SDS011;35496;-21.974;-46.800;2022-10-17T19:59:02;4.57;;;3.63;;
49590;SDS011;35496;-21.974;-46.800;2022-10-17T20:01:29;5.20;;;3.35;;
49590;SDS011;35496;-21.974;-46.800;2022-10-17T20:03:56;4.10;;;3.28;;
49590;SDS011;35496;-21.974;-46.800;2022-10-17T20:06:23;9.32;;;3.38;;
49590;SDS011;35496;-21.974;-46.800;2022-10-17T20:08:49;4.43;;;2.97;;
49590;SDS011;35496;-21.974;-46.800;2022-10-17T20:11:16;6.10;;;3.38;;
49590;SDS011;35496;-21.974;-46.800;2022-10-17T20:13:43;4.93;;;4.00;;
49590;SDS011;35496;-21.974;-46.800;2022-10-17T20:16:17;6.20;;;3.95;;
49590;SDS011;35496;-21.974;-46.800;2022-10-17T20:18:45;8.90;;;3.67;;
49590;SDS011;35496;-21.974;-46.800;2022-10-17T20:21:14;6.50;;;3.40;;
49590;SDS011;35496;-21.974;-46.800;2022-10-17T20:23:41;9.35;;;3.22;;
49590;SDS011;35496;-21.974;-46.800;2022-10-17T20:26:09;7.40;;;3.85;;
49590;SDS011;35496;-21.974;-46.800;2022-10-17T20:28:36;7.95;;;3.88;;
49590;SDS011;35496;-21.974;-46.800;2022-10-17T20:31:04;7.45;;;4.13;;
49590;SDS011;35496;-21.974;-46.800;2022-10-17T20:33:30;3.92;;;3.55;;
49590;SDS011;35496;-21.974;-46.800;2022-10-17T20:35:56;7.57;;;4.20;;
49590;SDS011;35496;-21.974;-46.800;2022-10-17T20:38:22;6.25;;;3.58;;
49590;SDS011;35496;-21.974;-46.800;2022-10-17T20:40:48;5.97;;;3.85;;
49590;SDS011;35496;-21.974;-46.800;2022-10-17T20:43:14;5.88;;;4.05;;
49590;SDS011;35496;-21.974;-46.800;2022-10-17T20:45:41;3.40;;;3.10;;
49590;SDS011;35496;-21.974;-46.800;2022-10-17T20:48:10;5.72;;;3.33;;
49590;SDS011;35496;-21.974;-46.800;2022-10-17T20:50:37;5.25;;;3.90;;
49590;SDS011;35496;-21.974;-46.800;2022-10-17T20:53:03;3.85;;;2.70;;
49590;SDS011;35496;-21.974;-46.800;2022-10-17T20:55:32;3.53;;;3.22;;
49590;SDS011;35496;-21.974;-46.800;2022-10-17T20:58:02;5.43;;;4.28;;
49590;SDS011;35496;-21.974;-46.800;2022-10-17T21:00:28;6.30;;;3.13;;
49590;SDS011;35496;-21.974;-46.800;2022-10-17T21:02:54;6.38;;;3.63;;
49590;SDS011;35496;-21.974;-46.800;2022-10-17T21:05:20;3.65;;;3.00;;
49590;SDS011;35496;-21.974;-46.800;2022-10-17T21:07:50;5.05;;;3.50;;
49590;SDS011;35496;-21.974;-46.800;2022-10-17T21:10:16;6.88;;;3.13;;
49590;SDS011;35496;-21.974;-46.800;2022-10-17T21:12:42;7.90;;;4.03;;
49590;SDS011;35496;-21.974;-46.800;2022-10-17T21:15:08;7.53;;;4.65;;
49590;SDS011;35496;-21.974;-46.800;2022-10-17T21:17:34;7.13;;;3.95;;
49590;SDS011;35496;-21.974;-46.800;2022-10-17T21:20:00;11.00;;;4.95;;
49590;SDS011;35496;-21.974;-46.800;2022-10-17T21:22:26;10.10;;;4.95;;
49590;SDS011;35496;-21.974;-46.800;2022-10-17T21:24:52;9.68;;;5.03;;
49590;SDS011;35496;-21.974;-46.800;2022-10-17T21:27:19;8.38;;;4.38;;
49590;SDS011;35496;-21.974;-46.800;2022-10-17T21:29:45;6.22;;;4.10;;